createdAt,value
2022-11-10T00:01:27.572Z,16.10
2022-11-10T00:04:01.090Z,18.08
2022-11-10T00:06:30.533Z,16.83
2022-11-10T00:08:58.672Z,19.33
2022-11-10T00:11:26.538Z,19.58
2022-11-10T00:13:56.716Z,18.57
2022-11-10T00:16:27.860Z,16.95
2022-11-10T00:22:11.455Z,17.63
2022-11-10T00:24:39.668Z,18.63
2022-11-10T00:37:08.869Z,16.80
2022-11-10T00:56:54.548Z,15.15
2022-11-10T03:14:30.850Z,18.65
2022-11-10T03:26:23.233Z,18.85
2022-11-10T05:11:09.383Z,20.73
2022-11-10T05:13:38.973Z,19.63
2022-11-10T05:16:12.946Z,17.88
2022-11-10T05:18:44.977Z,19.73
2022-11-10T05:21:26.996Z,18.88
2022-11-10T05:24:46.070Z,20.70
2022-11-10T05:58:25.177Z,17.05
2022-11-10T06:06:10.305Z,18.47
2022-11-10T06:08:37.227Z,17.00
2022-11-10T06:11:13.934Z,18.23
2022-11-10T06:13:54.672Z,18.08
2022-11-10T06:16:50.355Z,19.02
2022-11-10T06:36:16.911Z,16.03
2022-11-10T06:48:50.772Z,15.43
2022-11-10T06:54:35.572Z,14.88
2022-11-10T07:06:28.510Z,16.03
2022-11-10T07:08:55.699Z,16.98
2022-11-10T07:11:23.118Z,17.20
2022-11-10T07:13:50.174Z,16.95
2022-11-10T07:16:21.801Z,16.63
2022-11-10T07:18:51.539Z,18.07
2022-11-10T07:21:18.588Z,18.38
2022-11-10T07:23:45.493Z,18.98
2022-11-10T07:26:13.024Z,19.15
2022-11-10T07:28:39.960Z,19.85
2022-11-10T07:31:06.748Z,21.00
2022-11-10T07:33:33.855Z,23.52
2022-11-10T07:38:50.594Z,24.75
2022-11-10T07:41:17.458Z,28.60
2022-11-10T07:43:44.452Z,29.33
2022-11-10T07:46:11.375Z,29.50
2022-11-10T07:48:38.580Z,26.50
2022-11-10T07:51:09.576Z,26.85
2022-11-10T07:53:37.180Z,24.52
2022-11-10T07:56:03.943Z,27.37
2022-11-10T07:58:30.855Z,27.20
2022-11-10T08:00:59.825Z,26.88
2022-11-10T08:03:26.756Z,26.70
2022-11-10T08:05:53.515Z,24.15
2022-11-10T08:08:20.755Z,22.50
2022-11-10T08:10:47.945Z,21.15
2022-11-10T08:13:14.989Z,22.20
2022-11-10T08:15:42.100Z,21.25
2022-11-10T08:18:20.904Z,22.58
2022-11-10T08:20:48.460Z,22.37
2022-11-10T08:23:15.777Z,22.38
2022-11-10T08:25:42.857Z,23.35
2022-11-10T08:28:17.577Z,22.48
2022-11-10T08:30:45.987Z,21.67
2022-11-10T08:33:14.388Z,19.83
2022-11-10T08:35:43.355Z,20.25
2022-11-10T08:38:12.379Z,19.90
2022-11-10T08:40:40.707Z,19.92
2022-11-10T08:43:08.891Z,21.80
2022-11-10T08:45:40.973Z,21.67
2022-11-10T08:48:16.664Z,21.38
2022-11-10T08:50:44.396Z,21.20
2022-11-10T08:53:16.461Z,22.60
2022-11-10T08:55:44.714Z,18.63
2022-11-10T08:58:24.812Z,20.67
2022-11-10T09:00:52.496Z,21.02
2022-11-10T09:03:24.821Z,22.10
2022-11-10T09:05:58.026Z,21.92
2022-11-10T09:08:26.063Z,27.70
2022-11-10T09:10:52.840Z,21.30
2022-11-10T09:13:24.640Z,22.48
2022-11-10T09:15:54.905Z,22.15
2022-11-10T09:18:21.738Z,22.17
2022-11-10T09:20:48.507Z,20.70
2022-11-10T09:23:17.669Z,20.40
2022-11-10T09:25:50.537Z,22.50
2022-11-10T09:28:17.906Z,21.45
2022-11-10T09:30:49.479Z,22.15
2022-11-10T09:33:17.679Z,23.00
2022-11-10T09:35:44.535Z,23.27
2022-11-10T09:38:11.582Z,25.67
2022-11-10T09:41:17.141Z,20.05
2022-11-10T09:43:50.155Z,18.40
2022-11-10T09:46:24.636Z,18.17
2022-11-10T09:48:56.191Z,17.80
2022-11-10T09:51:34.460Z,17.15
2022-11-10T09:54:31.337Z,20.00
2022-11-10T09:57:00.160Z,19.40
2022-11-10T09:59:32.077Z,19.88
2022-11-10T10:01:58.786Z,23.03
2022-11-10T10:04:51.530Z,19.98
2022-11-10T10:07:26.275Z,19.40
2022-11-10T10:10:17.372Z,20.17
2022-11-10T10:12:52.780Z,19.65
2022-11-10T10:15:43.852Z,18.70
2022-11-10T10:18:26.744Z,19.90
2022-11-10T10:21:18.557Z,18.65
2022-11-10T10:26:42.065Z,17.08
2022-11-10T10:29:19.582Z,18.67
2022-11-10T10:31:50.898Z,19.05
2022-11-10T10:34:22.159Z,18.15
2022-11-10T10:36:49.305Z,18.00
2022-11-10T10:39:28.763Z,15.02
2022-11-10T10:41:56.187Z,16.13
2022-11-10T10:44:23.272Z,16.67
2022-11-10T10:46:58.950Z,17.50
2022-11-10T10:49:29.973Z,16.38
2022-11-10T10:52:15.616Z,16.95
2022-11-10T10:54:42.556Z,16.20
2022-11-10T10:57:27.505Z,17.85
2022-11-10T11:00:18.380Z,15.77
2022-11-10T11:03:05.339Z,15.13
2022-11-10T11:05:32.794Z,17.05
2022-11-10T11:08:02.180Z,15.00
2022-11-10T11:10:34.805Z,16.88
2022-11-10T11:13:23.576Z,15.68
2022-11-10T11:15:58.277Z,16.98
2022-11-10T11:18:27.377Z,15.68
2022-11-10T11:21:17.213Z,15.43
2022-11-10T11:23:48.495Z,16.83
2022-11-10T11:26:56.838Z,15.43
2022-11-10T11:29:26.692Z,15.93
2022-11-10T11:32:23.029Z,16.77
2022-11-10T11:34:52.773Z,15.33
2022-11-10T11:37:24.157Z,14.68
2022-11-10T11:40:10.553Z,15.15
2022-11-10T11:43:08.115Z,13.93
2022-11-10T11:45:45.863Z,13.27
2022-11-10T11:48:33.297Z,13.43
2022-11-10T11:51:30.532Z,13.13
2022-11-10T11:54:16.026Z,14.13
2022-11-10T11:56:49.199Z,12.93
2022-11-10T11:59:37.373Z,13.52
2022-11-10T12:02:26.248Z,14.17
2022-11-10T12:05:03.413Z,12.48
2022-11-10T12:07:43.271Z,14.13
2022-11-10T12:10:35.717Z,12.55
2022-11-10T12:13:13.018Z,13.00
2022-11-10T12:15:39.795Z,12.37
2022-11-10T12:18:35.869Z,11.93
2022-11-10T12:21:26.692Z,13.90
2022-11-10T12:24:17.881Z,12.90
2022-11-10T12:27:18.472Z,12.73
2022-11-10T12:29:54.411Z,11.77
2022-11-10T12:32:41.611Z,11.63
2022-11-10T12:35:23.071Z,11.75
2022-11-10T12:38:14.836Z,12.70
2022-11-10T12:40:52.357Z,11.70
2022-11-10T12:43:23.373Z,12.57
2022-11-10T12:45:54.811Z,11.55
2022-11-10T12:48:22.921Z,11.00
2022-11-10T12:50:56.218Z,11.23
2022-11-10T12:53:24.220Z,12.52
2022-11-10T12:56:08.823Z,12.43
2022-11-10T12:58:35.653Z,12.10
2022-11-10T13:01:13.832Z,12.23
2022-11-10T13:03:54.979Z,12.10
2022-11-10T13:06:33.557Z,11.98
2022-11-10T13:09:00.495Z,11.83
2022-11-10T13:11:35.215Z,12.30
2022-11-10T13:14:20.998Z,12.48
2022-11-10T13:16:52.755Z,13.18
2022-11-10T13:19:25.654Z,12.13
2022-11-10T13:21:52.585Z,12.37
2022-11-10T13:24:25.496Z,12.95
2022-11-10T13:26:54.588Z,12.25
2022-11-10T13:29:43.555Z,13.02
2022-11-10T13:32:23.808Z,13.50
2022-11-10T13:34:51.034Z,13.67
2022-11-10T13:37:32.901Z,11.80
2022-11-10T13:40:17.786Z,11.48
2022-11-10T13:43:05.143Z,11.70
2022-11-10T13:45:36.079Z,14.05
2022-11-10T13:48:12.033Z,12.83
2022-11-10T13:50:58.464Z,14.02
2022-11-10T13:53:46.612Z,11.82
2022-11-10T13:56:25.437Z,13.10
2022-11-10T13:58:52.454Z,12.40
2022-11-10T14:01:19.143Z,13.17
2022-11-10T14:03:46.044Z,13.23
2022-11-10T14:06:21.952Z,11.90
2022-11-10T14:09:17.975Z,11.75
2022-11-10T14:11:50.418Z,13.02
2022-11-10T14:14:27.395Z,11.83
2022-11-10T14:16:55.704Z,13.15
2022-11-10T14:19:44.692Z,12.93
2022-11-10T14:22:22.169Z,13.40
2022-11-10T14:24:58.349Z,15.35
2022-11-10T14:27:29.422Z,16.83
2022-11-10T14:30:28.640Z,14.50
2022-11-10T14:33:10.380Z,13.98
2022-11-10T14:35:50.612Z,12.93
2022-11-10T14:38:21.844Z,13.55
2022-11-10T14:40:50.398Z,13.50
2022-11-10T14:43:35.018Z,11.93
2022-11-10T14:46:04.103Z,12.88
2022-11-10T14:48:36.820Z,12.35
2022-11-10T14:51:18.494Z,12.50
2022-11-10T14:53:54.795Z,13.20
2022-11-10T14:56:30.873Z,12.60
2022-11-10T14:58:59.244Z,12.73
2022-11-10T15:01:34.036Z,12.82
2022-11-10T15:04:06.512Z,12.93
2022-11-10T15:06:34.454Z,12.70
2022-11-10T15:09:15.746Z,13.45
2022-11-10T15:11:51.827Z,13.50
2022-11-10T15:14:36.713Z,12.95
2022-11-10T15:17:08.139Z,11.65
2022-11-10T15:19:52.337Z,11.57
2022-11-10T15:22:37.490Z,11.35
2022-11-10T15:25:17.228Z,11.70
2022-11-10T15:27:57.821Z,11.27
2022-11-10T15:30:30.026Z,11.68
2022-11-10T15:33:02.058Z,11.53
2022-11-10T15:35:31.703Z,12.88
2022-11-10T15:38:07.506Z,11.40
2022-11-10T15:40:52.349Z,11.43
2022-11-10T15:43:22.575Z,11.25
2022-11-10T15:45:58.299Z,10.60
2022-11-10T15:48:25.518Z,10.63
2022-11-10T15:50:55.561Z,10.82
2022-11-10T15:53:26.418Z,11.75
2022-11-10T15:55:53.275Z,11.18
2022-11-10T15:58:22.583Z,11.67
2022-11-10T16:00:50.393Z,10.90
2022-11-10T16:03:19.784Z,11.20
2022-11-10T16:05:46.620Z,11.77
2022-11-10T16:08:19.543Z,11.45
2022-11-10T16:11:11.745Z,11.63
2022-11-10T16:13:50.314Z,11.43
2022-11-10T16:16:32.662Z,11.05
2022-11-10T16:19:05.334Z,16.90
2022-11-10T16:21:32.510Z,18.63
2022-11-10T16:24:05.381Z,23.07
2022-11-10T16:26:38.239Z,16.63
2022-11-10T16:29:11.699Z,13.55
2022-11-10T16:31:41.378Z,13.40
2022-11-10T16:34:13.619Z,13.48
2022-11-10T16:36:53.253Z,13.83
2022-11-10T16:44:46.213Z,16.63
2022-11-10T16:47:28.385Z,14.57
2022-11-10T16:49:55.683Z,15.47
2022-11-10T16:52:26.463Z,14.95
2022-11-10T16:54:59.932Z,17.83
2022-11-10T16:57:28.748Z,15.70
2022-11-10T16:59:55.732Z,17.30
2022-11-10T17:02:33.791Z,17.70
2022-11-10T17:05:02.491Z,16.63
2022-11-10T17:07:33.988Z,16.05
2022-11-10T17:10:01.423Z,16.58
2022-11-10T17:12:58.463Z,15.82
2022-11-10T17:15:18.756Z,16.63
2022-11-10T17:17:48.783Z,18.92
2022-11-10T17:20:23.865Z,17.23
2022-11-10T17:22:55.639Z,15.48
2022-11-10T17:25:46.738Z,15.65
2022-11-10T17:28:15.913Z,13.50
2022-11-10T17:30:48.212Z,14.90
2022-11-10T17:33:15.339Z,12.52
2022-11-10T17:35:47.860Z,14.18
2022-11-10T17:38:23.223Z,15.05
2022-11-10T17:40:56.399Z,12.97
2022-11-10T17:43:26.333Z,13.52
2022-11-10T17:45:53.458Z,13.02
2022-11-10T17:48:21.561Z,11.50
2022-11-10T17:50:55.432Z,12.50
2022-11-10T17:53:39.946Z,13.33
2022-11-10T17:56:09.348Z,13.63
2022-11-10T17:58:36.335Z,15.13
2022-11-10T18:01:03.984Z,14.40
2022-11-10T18:03:31.098Z,15.52
2022-11-10T18:05:58.065Z,18.30
2022-11-10T18:08:34.189Z,20.33
2022-11-10T18:11:01.612Z,21.15
2022-11-10T18:13:36.539Z,20.73
2022-11-10T18:16:03.772Z,19.65
2022-11-10T18:18:30.734Z,19.33
2022-11-10T18:20:58.415Z,19.92
2022-11-10T18:23:27.774Z,18.25
2022-11-10T18:25:54.695Z,18.48
2022-11-10T18:28:21.900Z,16.30
2022-11-10T18:30:50.669Z,17.60
2022-11-10T18:33:19.922Z,18.27
2022-11-10T18:35:50.142Z,17.30
2022-11-10T18:38:17.398Z,18.17
2022-11-10T18:40:44.302Z,15.10
2022-11-10T18:43:11.260Z,14.47
2022-11-10T18:45:38.031Z,14.55
2022-11-10T18:48:06.271Z,13.80
2022-11-10T18:50:38.177Z,13.40
2022-11-10T18:53:05.230Z,14.30
2022-11-10T18:55:35.137Z,13.90
2022-11-10T18:58:02.854Z,15.32
2022-11-10T19:00:29.863Z,13.65
2022-11-10T19:02:58.072Z,13.57
2022-11-10T19:05:30.984Z,15.20
2022-11-10T19:07:57.979Z,15.43
2022-11-10T19:10:28.373Z,17.13
2022-11-10T19:12:56.094Z,18.15
2022-11-10T19:15:23.150Z,19.13
2022-11-10T19:17:52.305Z,19.65
2022-11-10T19:20:19.348Z,22.27
2022-11-10T19:22:47.155Z,14.05
2022-11-10T19:25:15.065Z,22.73
2022-11-10T19:27:42.942Z,18.55
2022-11-10T19:30:11.308Z,20.50
2022-11-10T19:32:39.753Z,19.63
2022-11-10T19:35:07.456Z,18.42
2022-11-10T19:37:35.039Z,20.15
2022-11-10T19:40:02.854Z,18.58
2022-11-10T19:42:33.453Z,18.40
2022-11-10T19:45:08.381Z,16.37
2022-11-10T19:47:35.492Z,14.68
2022-11-10T19:50:02.512Z,15.23
2022-11-10T19:52:30.200Z,15.48
2022-11-10T19:54:57.103Z,13.65
2022-11-10T19:57:24.331Z,14.23
2022-11-10T19:59:51.692Z,15.73
2022-11-10T20:02:19.011Z,15.93
2022-11-10T20:04:46.440Z,14.52
2022-11-10T20:07:13.441Z,16.75
2022-11-10T20:09:40.534Z,18.80
2022-11-10T20:12:17.494Z,17.85
2022-11-10T20:14:50.467Z,15.73
2022-11-10T20:17:25.912Z,15.13
2022-11-10T20:20:04.463Z,14.77
2022-11-10T20:22:43.219Z,12.67
2022-11-10T20:25:30.823Z,14.23
2022-11-10T20:27:58.813Z,14.52
2022-11-10T20:30:26.346Z,13.48
2022-11-10T20:33:08.222Z,15.18
2022-11-10T20:42:12.066Z,12.25
2022-11-10T20:44:59.227Z,11.82
2022-11-10T20:47:34.905Z,11.60
2022-11-10T20:50:03.691Z,12.23
2022-11-10T20:52:39.739Z,15.07
2022-11-10T20:55:08.387Z,13.18
2022-11-10T20:57:35.498Z,16.52
2022-11-10T21:02:59.946Z,16.73
2022-11-10T21:05:38.093Z,17.00
2022-11-10T21:08:27.346Z,14.52
2022-11-10T21:11:15.582Z,13.50
2022-11-10T21:14:28.438Z,16.17
2022-11-10T21:17:25.297Z,14.13
2022-11-10T21:22:38.100Z,12.73
2022-11-10T21:25:22.754Z,14.13
2022-11-10T21:28:00.215Z,12.30
2022-11-10T21:30:50.911Z,12.47
2022-11-10T21:36:20.661Z,17.15
2022-11-10T21:39:53.293Z,16.45
2022-11-10T21:42:20.576Z,17.13
2022-11-10T21:45:04.019Z,14.97
2022-11-10T21:48:35.297Z,18.55
2022-11-10T21:50:33.089Z,17.23
2022-11-10T21:53:02.736Z,16.20
2022-11-10T21:55:43.629Z,17.35
2022-11-10T21:58:15.589Z,15.73
2022-11-10T22:01:37.890Z,16.95
2022-11-10T22:03:52.827Z,15.27
2022-11-10T22:06:28.932Z,17.70
2022-11-10T22:09:04.751Z,15.73
2022-11-10T22:11:56.104Z,15.40
2022-11-10T22:14:30.382Z,14.68
2022-11-10T22:20:46.875Z,14.90
2022-11-10T22:23:13.573Z,15.02
2022-11-10T22:26:30.779Z,14.50
2022-11-10T22:29:36.228Z,15.20
2022-11-10T22:32:30.887Z,16.10
2022-11-10T22:35:29.155Z,16.70
2022-11-10T22:38:08.809Z,16.00
2022-11-10T22:43:20.099Z,16.95
2022-11-10T22:45:55.384Z,17.35
2022-11-10T22:48:42.022Z,16.70
2022-11-10T22:51:52.211Z,15.82
2022-11-10T22:54:35.738Z,15.97
2022-11-10T23:00:15.425Z,17.20
2022-11-10T23:03:00.997Z,17.33
2022-11-10T23:05:56.436Z,15.70
2022-11-10T23:08:59.051Z,15.97
2022-11-10T23:19:00.429Z,15.98
2022-11-10T23:24:01.139Z,13.33
2022-11-10T23:56:57.453Z,14.60
